createdAt,value
2023-05-13T05:28:13.550Z,23.83
2023-05-13T05:30:41.762Z,21.67
2023-05-13T05:33:08.702Z,21.08
2023-05-13T05:35:38.495Z,19.65
2023-05-13T05:38:05.538Z,22.10
2023-05-13T05:40:32.979Z,22.02
2023-05-13T05:42:59.663Z,21.35
2023-05-13T05:45:26.264Z,24.88
2023-05-13T05:47:54.619Z,22.73
2023-05-13T05:50:23.220Z,19.92
2023-05-13T05:52:51.787Z,21.88
2023-05-13T05:55:18.718Z,18.55
2023-05-13T05:57:45.328Z,22.02
2023-05-13T06:00:12.497Z,19.70
2023-05-13T06:02:39.374Z,18.13
2023-05-13T06:05:07.847Z,17.42
2023-05-13T06:07:34.611Z,19.45
2023-05-13T06:10:01.660Z,19.23
2023-05-13T06:12:28.270Z,15.98
2023-05-13T06:14:54.920Z,18.70
2023-05-13T06:17:21.450Z,15.73
2023-05-13T06:19:48.364Z,18.90
2023-05-13T06:22:15.732Z,18.48
2023-05-13T06:24:49.030Z,19.65
2023-05-13T06:27:15.617Z,20.33
2023-05-13T06:29:42.191Z,21.08
2023-05-13T06:32:09.179Z,15.55
2023-05-13T06:34:35.987Z,19.25
2023-05-13T06:37:02.569Z,20.50
2023-05-13T06:39:29.564Z,16.33
2023-05-13T06:41:56.200Z,17.17
2023-05-13T06:44:23.081Z,19.42
2023-05-13T06:46:49.779Z,17.48
2023-05-13T06:49:16.676Z,14.32
2023-05-13T06:51:43.196Z,17.23
2023-05-13T06:54:10.073Z,15.85
2023-05-13T06:56:38.805Z,15.93
2023-05-13T06:59:05.655Z,18.05
2023-05-13T07:01:32.631Z,14.93
2023-05-13T07:03:59.404Z,14.20
2023-05-13T07:06:26.157Z,13.23
2023-05-13T07:08:52.720Z,14.85
2023-05-13T07:11:19.789Z,16.20
2023-05-13T07:13:50.577Z,14.98
2023-05-13T07:16:17.625Z,15.10
2023-05-13T07:18:44.278Z,15.35
2023-05-13T07:21:10.931Z,19.10
2023-05-13T07:23:37.847Z,17.00
2023-05-13T07:26:04.951Z,14.50
2023-05-13T07:28:31.593Z,14.30
2023-05-13T07:30:58.942Z,12.40
2023-05-13T07:33:25.549Z,14.30
2023-05-13T07:35:52.901Z,12.85
2023-05-13T07:38:21.690Z,16.15
2023-05-13T07:40:48.358Z,15.65
2023-05-13T07:43:17.902Z,15.35
2023-05-13T07:45:44.758Z,12.60
2023-05-13T07:48:13.161Z,12.52
2023-05-13T07:50:41.528Z,8.70
2023-05-13T07:53:08.806Z,19.60
2023-05-13T07:55:35.453Z,12.68
2023-05-13T07:58:02.626Z,11.15
2023-05-13T08:00:29.840Z,13.18
2023-05-13T08:02:56.417Z,11.10
2023-05-13T08:05:23.264Z,13.70
2023-05-13T08:07:49.894Z,9.73
2023-05-13T08:10:16.589Z,9.75
2023-05-13T08:12:50.907Z,13.38
2023-05-13T08:17:50.555Z,10.70
2023-05-13T08:20:17.438Z,8.38
2023-05-13T08:22:44.319Z,10.77
2023-05-13T08:25:13.910Z,10.18
2023-05-13T08:27:40.829Z,10.07
2023-05-13T08:30:08.626Z,10.15
2023-05-13T08:32:35.291Z,11.43
2023-05-13T08:35:01.956Z,9.50
2023-05-13T08:37:28.668Z,13.25
2023-05-13T08:39:58.056Z,13.57
2023-05-13T08:42:38.309Z,9.63
2023-05-13T08:45:10.153Z,9.82
2023-05-13T08:47:37.108Z,10.32
2023-05-13T08:50:13.968Z,11.82
2023-05-13T08:52:42.046Z,10.13
2023-05-13T08:55:19.562Z,10.00
2023-05-13T19:09:52.727Z,27.45
2023-05-13T19:12:19.222Z,19.70
2023-05-13T19:14:48.841Z,15.55
2023-05-13T19:17:16.053Z,21.20
2023-05-13T19:19:44.467Z,20.25
2023-05-13T19:22:11.112Z,21.88
2023-05-13T19:24:39.489Z,16.35
2023-05-13T19:27:07.402Z,20.85
2023-05-13T19:29:35.511Z,19.88
2023-05-13T19:32:02.106Z,20.77
2023-05-13T19:34:29.061Z,16.20
2023-05-13T19:36:59.219Z,25.30
2023-05-13T19:39:27.457Z,20.13
2023-05-13T19:41:55.019Z,19.98
2023-05-13T19:44:23.778Z,23.67
2023-05-13T19:46:51.395Z,23.88
2023-05-13T19:49:22.231Z,23.50
2023-05-13T19:51:49.126Z,19.50
2023-05-13T19:54:16.331Z,26.23
2023-05-13T19:56:43.061Z,21.95
2023-05-13T19:59:09.941Z,19.00
2023-05-13T20:01:40.350Z,23.38
2023-05-13T20:04:07.383Z,18.05
2023-05-13T20:06:44.852Z,21.30
2023-05-13T20:09:25.913Z,18.95
2023-05-13T20:17:53.161Z,24.25
2023-05-13T20:20:31.278Z,23.77
2023-05-13T20:22:58.167Z,17.48
2023-05-13T20:25:25.172Z,20.35
2023-05-13T20:27:51.809Z,19.05
2023-05-13T20:30:20.093Z,17.00
2023-05-13T20:32:47.305Z,16.38
2023-05-13T20:35:14.714Z,18.25
2023-05-13T20:37:41.916Z,18.63
2023-05-13T20:40:08.953Z,18.13
2023-05-13T20:42:35.523Z,19.17
2023-05-13T20:45:02.704Z,19.90
2023-05-13T20:47:31.503Z,19.70
2023-05-13T20:49:59.079Z,19.27
2023-05-13T20:52:26.622Z,19.15
2023-05-13T20:54:56.173Z,18.58
2023-05-13T20:57:26.639Z,25.25
2023-05-13T20:59:54.569Z,21.55
2023-05-13T21:02:21.880Z,17.73
2023-05-13T21:04:49.474Z,19.35
2023-05-13T21:07:17.396Z,20.40
2023-05-13T21:09:44.065Z,18.23
2023-05-13T21:12:11.373Z,23.42
2023-05-13T21:14:38.269Z,20.38
2023-05-13T21:17:06.326Z,20.30
2023-05-13T21:19:33.278Z,20.65
2023-05-13T21:22:02.199Z,19.70
2023-05-13T21:24:29.107Z,22.20
2023-05-13T21:26:55.917Z,20.75
2023-05-13T21:29:24.959Z,22.55
2023-05-13T21:31:54.002Z,23.60
2023-05-13T21:34:20.609Z,31.40
2023-05-13T21:36:47.839Z,20.95
2023-05-13T21:39:16.026Z,25.98
2023-05-13T21:41:44.679Z,23.77
2023-05-13T21:44:13.221Z,28.65
2023-05-13T21:46:40.264Z,24.67
2023-05-13T21:49:07.053Z,24.05
2023-05-13T21:51:33.822Z,25.58
2023-05-13T21:54:01.017Z,24.88
2023-05-13T21:56:27.856Z,26.30
2023-05-13T21:58:54.827Z,28.50
2023-05-13T22:01:21.651Z,27.77
2023-05-13T22:03:48.284Z,30.58
2023-05-13T22:06:14.811Z,26.88
2023-05-13T22:08:41.270Z,22.13
2023-05-13T22:11:09.220Z,21.27
2023-05-13T22:13:35.707Z,28.80
2023-05-13T22:16:02.403Z,23.92
2023-05-13T22:18:31.685Z,25.83
2023-05-13T22:21:00.784Z,33.13
2023-05-13T22:23:28.203Z,25.60
2023-05-13T22:25:55.343Z,26.63
2023-05-13T22:28:23.050Z,28.25
2023-05-13T22:30:55.669Z,27.45
2023-05-13T22:33:22.570Z,27.23
2023-05-13T22:35:49.289Z,31.85
2023-05-13T22:38:16.152Z,27.27
2023-05-13T22:40:43.424Z,29.17
2023-05-13T22:43:11.059Z,25.45
2023-05-13T22:45:38.398Z,27.27
2023-05-13T22:48:05.141Z,32.20
2023-05-13T22:50:31.685Z,30.83
2023-05-13T22:52:58.186Z,28.60
2023-05-13T22:55:25.029Z,27.00
2023-05-13T22:57:53.962Z,32.10
2023-05-13T23:00:20.828Z,33.03
2023-05-13T23:02:50.080Z,33.05
2023-05-13T23:05:16.858Z,34.22
2023-05-13T23:07:44.182Z,32.70
2023-05-13T23:10:11.456Z,30.83
2023-05-13T23:12:38.879Z,28.70
2023-05-13T23:15:07.020Z,30.13
2023-05-13T23:17:33.703Z,31.77
2023-05-13T23:20:01.289Z,31.17
2023-05-13T23:22:27.786Z,31.70
2023-05-13T23:24:54.589Z,35.05
2023-05-13T23:27:21.772Z,31.08
2023-05-13T23:29:48.657Z,35.72
2023-05-13T23:32:15.229Z,28.25
2023-05-13T23:34:42.222Z,31.50
2023-05-13T23:37:08.795Z,31.52
2023-05-13T23:39:35.287Z,28.90
2023-05-13T23:42:01.858Z,32.63
2023-05-13T23:44:28.389Z,33.47
2023-05-13T23:46:55.194Z,36.83
2023-05-13T23:49:21.916Z,34.85
2023-05-13T23:51:48.822Z,36.53
2023-05-13T23:54:15.795Z,33.95
2023-05-13T23:56:42.847Z,33.83
2023-05-13T23:59:09.533Z,36.80
